Time;durP1;ratioP1;P1;durP2;ratioP2;P2;SDS_P1;SDS_P2;PMS_P1;PMS_P2;Temp;Humidity;BMP_temperature;BMP_pressure;BME280_temperature;BME280_humidity;BME280_pressure;Samples;Min_cycle;Max_cycle;Signal;HPM_P1;HPM_P2
2023/03/08 00:00:09;;;;;;;15.52;7.68;;;;;;;6.26;100.00;96497.66;5152957;27;20026;-76
2023/03/08 00:02:35;;;;;;;15.57;7.07;;;;;;;6.17;100.00;96503.53;5099012;27;20031;-76
2023/03/08 00:05:02;;;;;;;14.63;6.50;;;;;;;6.15;100.00;96502.78;5098536;27;20019;-76
2023/03/08 00:07:28;;;;;;;12.80;6.70;;;;;;;6.05;100.00;96505.16;5098761;27;20030;-75
2023/03/08 00:09:53;;;;;;;23.02;8.65;;;;;;;6.05;100.00;96514.91;5116012;27;20011;-76
2023/03/08 00:12:19;;;;;;;18.98;7.15;;;;;;;5.95;100.00;96499.53;5106230;27;20039;-76
2023/03/08 00:14:45;;;;;;;14.27;7.38;;;;;;;6.00;100.00;96523.13;5147709;27;20087;-76
2023/03/08 00:17:11;;;;;;;18.15;7.15;;;;;;;5.93;100.00;96522.66;5099202;27;20104;-77
2023/03/08 00:19:37;;;;;;;16.67;7.32;;;;;;;5.95;100.00;96525.22;5100447;27;20116;-77
2023/03/08 00:22:03;;;;;;;17.00;7.55;;;;;;;5.94;100.00;96534.09;5119176;27;20054;-76
2023/03/08 00:24:29;;;;;;;18.48;7.72;;;;;;;5.76;100.00;96530.72;5124495;27;20038;-76
2023/03/08 00:26:55;;;;;;;21.02;8.70;;;;;;;5.76;100.00;96541.34;5115909;27;20033;-77
2023/03/08 00:29:20;;;;;;;23.65;9.05;;;;;;;5.80;100.00;96536.72;5115366;27;20110;-77
2023/03/08 00:31:46;;;;;;;23.23;8.60;;;;;;;5.70;100.00;96533.75;5099426;27;20474;-76
2023/03/08 00:34:11;;;;;;;20.10;8.38;;;;;;;5.63;100.00;96543.00;5105488;27;20047;-77
2023/03/08 00:36:37;;;;;;;15.63;7.63;;;;;;;5.61;100.00;96538.72;5132352;27;20031;-77
2023/03/08 00:39:02;;;;;;;16.67;6.35;;;;;;;5.62;100.00;96543.09;5128199;27;20107;-76
2023/03/08 00:41:28;;;;;;;20.85;9.25;;;;;;;5.57;100.00;96535.41;5106396;27;20035;-77
2023/03/08 00:43:53;;;;;;;42.33;17.58;;;;;;;5.70;100.00;96549.66;5129479;27;20028;-76
2023/03/08 00:46:19;;;;;;;19.70;9.23;;;;;;;5.76;100.00;96549.31;5119524;27;20095;-77
2023/03/08 00:48:44;;;;;;;24.45;9.75;;;;;;;5.60;100.00;96521.97;5140973;27;20023;-77
2023/03/08 00:51:13;;;;;;;20.55;10.15;;;;;;;5.67;100.00;96541.88;5132248;27;20027;-76
2023/03/08 00:53:38;;;;;;;27.38;10.48;;;;;;;5.61;100.00;96536.09;5149545;27;20027;-78
2023/03/08 00:56:04;;;;;;;26.75;11.57;;;;;;;5.59;100.00;96537.97;5106521;27;20027;-76
2023/03/08 00:58:30;;;;;;;20.83;9.73;;;;;;;5.52;100.00;96545.44;5133252;27;20394;-76
2023/03/08 01:00:57;;;;;;;19.10;8.52;;;;;;;5.53;100.00;96551.59;5126320;27;20054;-77
2023/03/08 01:03:23;;;;;;;18.38;8.23;;;;;;;5.51;100.00;96548.19;5114784;27;20062;-76
2023/03/08 01:05:51;;;;;;;21.95;7.32;;;;;;;5.53;100.00;96539.19;5122061;27;20019;-77
2023/03/08 01:08:17;;;;;;;17.55;7.35;;;;;;;5.46;100.00;96557.25;5129003;27;20023;-75
2023/03/08 01:10:51;;;;;;;13.30;5.82;;;;;;;5.42;100.00;96546.91;5114830;27;20019;-76
2023/03/08 01:13:18;;;;;;;15.35;5.82;;;;;;;5.39;100.00;96552.38;5114563;27;20058;-76
2023/03/08 01:15:44;;;;;;;14.80;6.35;;;;;;;5.34;100.00;96547.38;5100571;28;20426;-76
2023/03/08 01:18:09;;;;;;;16.83;6.28;;;;;;;5.21;100.00;96562.25;5148776;27;20054;-76
2023/03/08 01:20:35;;;;;;;16.83;6.78;;;;;;;5.15;100.00;96552.00;5126055;27;20027;-76
2023/03/08 01:23:01;;;;;;;16.10;6.05;;;;;;;5.24;100.00;96567.38;5131558;27;20047;-76
2023/03/08 01:25:26;;;;;;;14.32;5.88;;;;;;;5.33;100.00;96574.81;5120160;27;20034;-76
2023/03/08 01:27:52;;;;;;;18.15;6.30;;;;;;;5.21;100.00;96564.03;5097474;27;20023;-75
2023/03/08 01:30:17;;;;;;;11.55;6.15;;;;;;;5.19;100.00;96572.09;5114380;27;20077;-77
2023/03/08 01:32:43;;;;;;;11.57;6.05;;;;;;;5.19;100.00;96563.28;5114315;27;20104;-77
2023/03/08 01:35:09;;;;;;;11.38;5.63;;;;;;;5.27;100.00;96571.63;5096997;27;20046;-76
2023/03/08 01:37:34;;;;;;;11.48;5.57;;;;;;;5.16;100.00;96571.41;5124346;27;20498;-76
2023/03/08 01:40:00;;;;;;;9.48;5.07;;;;;;;5.17;100.00;96576.59;5114258;27;20039;-76
2023/03/08 01:42:26;;;;;;;13.27;5.28;;;;;;;5.18;100.00;96577.47;5134221;27;20027;-78
2023/03/08 01:44:55;;;;;;;10.18;4.47;;;;;;;5.14;100.00;96574.13;5139193;27;20023;-76
2023/03/08 01:47:25;;;;;;;11.18;4.53;;;;;;;5.13;100.00;96568.94;5096923;27;20027;-78
2023/03/08 01:49:56;;;;;;;13.18;4.47;;;;;;;5.19;100.00;96576.53;5122071;27;20007;-77
2023/03/08 01:52:45;;;;;;;7.97;3.33;;;;;;;5.23;100.00;96583.38;5113946;27;20084;-76
2023/03/08 01:55:12;;;;;;;7.28;3.42;;;;;;;5.22;100.00;96574.56;5096967;27;20030;-77
2023/03/08 01:57:41;;;;;;;9.88;3.90;;;;;;;5.24;100.00;96585.06;5115219;27;20023;-76
2023/03/08 02:00:25;;;;;;;8.30;4.03;;;;;;;5.22;100.00;96582.53;5113690;27;20030;-76
2023/03/08 02:02:58;;;;;;;12.13;4.57;;;;;;;5.25;100.00;96592.09;5114218;27;20023;-76
2023/03/08 02:05:25;;;;;;;11.20;5.82;;;;;;;5.19;100.00;96587.13;5110003;27;20023;-76
2023/03/08 02:07:51;;;;;;;12.15;4.75;;;;;;;5.12;100.00;96580.47;5111271;27;20335;-76
2023/03/08 02:10:17;;;;;;;10.45;5.22;;;;;;;5.12;100.00;96597.22;5124318;27;20027;-76
2023/03/08 02:12:43;;;;;;;8.52;4.90;;;;;;;5.14;100.00;96594.47;5096431;27;20023;-75
2023/03/08 02:15:10;;;;;;;8.80;4.40;;;;;;;5.12;100.00;96599.88;5105039;27;20049;-77
2023/03/08 02:17:37;;;;;;;8.65;4.07;;;;;;;5.14;100.00;96602.41;5113537;27;20026;-76
2023/03/08 02:20:09;;;;;;;10.90;4.88;;;;;;;5.11;100.00;96600.81;5096841;28;20486;-76
2023/03/08 02:22:39;;;;;;;12.18;5.07;;;;;;;5.05;100.00;96600.28;5131842;27;20125;-76
2023/03/08 02:25:15;;;;;;;15.60;6.70;;;;;;;4.99;100.00;96603.28;5120612;27;20079;-76
2023/03/08 02:27:40;;;;;;;17.52;7.07;;;;;;;4.88;100.00;96588.84;5159980;27;20478;-77
2023/03/08 02:30:07;;;;;;;11.80;5.45;;;;;;;4.93;100.00;96600.03;5096504;28;20051;-77
2023/03/08 02:32:32;;;;;;;19.35;7.22;;;;;;;4.80;100.00;96593.69;5101309;28;20502;-76
2023/03/08 02:34:58;;;;;;;17.27;5.72;;;;;;;4.85;100.00;96599.59;5131881;28;20030;-76
2023/03/08 02:37:23;;;;;;;17.55;6.45;;;;;;;4.88;100.00;96601.22;5097940;28;20110;-76
2023/03/08 02:39:49;;;;;;;16.15;7.68;;;;;;;4.83;100.00;96598.81;5096350;28;20033;-76
2023/03/08 02:42:14;;;;;;;18.75;8.10;;;;;;;4.87;100.00;96607.44;5113041;28;20055;-75
2023/03/08 02:44:40;;;;;;;15.57;5.95;;;;;;;4.85;100.00;96618.16;5096131;28;20099;-77
2023/03/08 02:47:06;;;;;;;14.43;5.88;;;;;;;4.78;100.00;96615.91;5097303;28;20022;-76
2023/03/08 02:49:31;;;;;;;12.35;5.07;;;;;;;4.81;100.00;96616.59;5113139;28;20027;-77
2023/03/08 02:51:57;;;;;;;11.93;5.32;;;;;;;4.72;100.00;96619.75;5113230;28;20038;-78
2023/03/08 02:54:22;;;;;;;12.40;5.85;;;;;;;4.74;100.00;96630.25;5115891;27;20391;-78
2023/03/08 02:56:48;;;;;;;15.10;6.13;;;;;;;4.72;100.00;96634.78;5128605;28;20058;-77
2023/03/08 02:59:13;;;;;;;21.77;7.20;;;;;;;4.67;100.00;96624.44;5128727;28;20517;-78
2023/03/08 03:01:39;;;;;;;14.35;7.00;;;;;;;4.70;100.00;96632.22;5113190;28;20019;-77
2023/03/08 03:04:04;;;;;;;22.73;7.03;;;;;;;4.68;100.00;96643.81;5147740;27;20023;-78
2023/03/08 03:06:31;;;;;;;12.55;5.22;;;;;;;4.55;100.00;96637.47;5131595;28;20039;-76
2023/03/08 03:08:57;;;;;;;17.30;5.63;;;;;;;4.54;100.00;96636.63;5120868;27;20026;-78
2023/03/08 03:11:23;;;;;;;11.90;5.32;;;;;;;4.63;100.00;96646.72;5104814;28;20027;-76
2023/03/08 03:13:54;;;;;;;7.07;4.85;;;;;;;4.60;100.00;96641.59;5115474;28;20065;-77
2023/03/08 03:16:20;;;;;;;11.20;6.22;;;;;;;4.57;100.00;96641.75;5105570;28;20049;-75
2023/03/08 03:18:45;;;;;;;8.90;4.93;;;;;;;4.63;100.00;96652.00;5104408;28;20027;-77
2023/03/08 03:21:12;;;;;;;15.63;6.95;;;;;;;4.66;100.00;96645.69;5113796;28;20034;-77
2023/03/08 03:23:38;;;;;;;14.55;6.20;;;;;;;4.64;100.00;96642.28;5129796;27;20047;-77
2023/03/08 03:26:05;;;;;;;17.90;6.50;;;;;;;4.61;100.00;96638.00;5119380;28;20062;-76
2023/03/08 03:28:31;;;;;;;15.07;7.68;;;;;;;4.63;100.00;96636.13;5112926;28;20399;-77
2023/03/08 03:30:56;;;;;;;17.05;7.85;;;;;;;4.70;100.00;96641.97;5138768;27;20019;-77
2023/03/08 03:33:22;;;;;;;15.38;6.95;;;;;;;4.66;100.00;96641.25;5130143;28;20027;-75
2023/03/08 03:35:47;;;;;;;11.00;5.60;;;;;;;4.79;100.00;96652.91;5146890;27;20423;-75
2023/03/08 03:38:13;;;;;;;12.90;5.32;;;;;;;4.62;100.00;96658.22;5147149;27;20471;-76
2023/03/08 03:40:38;;;;;;;11.35;5.43;;;;;;;4.46;100.00;96643.25;5149868;27;20107;-77
2023/03/08 03:43:04;;;;;;;15.15;5.30;;;;;;;4.42;100.00;96642.56;5133534;27;20383;-77
2023/03/08 03:45:29;;;;;;;10.95;5.57;;;;;;;4.35;100.00;96655.25;5099478;27;20026;-77
2023/03/08 03:47:55;;;;;;;10.95;4.88;;;;;;;4.34;100.00;96650.88;5119058;27;20085;-75
2023/03/08 03:50:20;;;;;;;16.05;5.97;;;;;;;4.32;100.00;96659.84;5150874;27;20023;-75
2023/03/08 03:52:46;;;;;;;18.55;6.28;;;;;;;4.36;100.00;96672.00;5119206;27;20039;-77
2023/03/08 03:55:11;;;;;;;15.02;6.20;;;;;;;4.35;100.00;96670.28;5116585;27;20015;-77
2023/03/08 03:57:37;;;;;;;13.05;5.47;;;;;;;4.28;100.00;96672.38;5101796;27;20561;-76
2023/03/08 04:00:04;;;;;;;16.90;5.45;;;;;;;4.32;100.00;96667.78;5134529;27;20023;-76
2023/03/08 04:02:29;;;;;;;13.25;5.40;;;;;;;4.29;100.00;96665.28;5131433;27;20080;-78
2023/03/08 04:04:55;;;;;;;12.57;5.95;;;;;;;4.27;100.00;96665.38;5098903;27;20022;-76
2023/03/08 04:07:20;;;;;;;15.82;5.82;;;;;;;4.36;100.00;96669.34;5115924;27;20482;-76
2023/03/08 04:09:46;;;;;;;12.85;5.63;;;;;;;4.29;100.00;96666.16;5120122;27;20052;-76
2023/03/08 04:12:12;;;;;;;15.05;5.43;;;;;;;4.24;100.00;96664.69;5098918;27;20031;-77
2023/03/08 04:14:39;;;;;;;14.52;6.78;;;;;;;4.27;100.00;96675.13;5113066;27;20015;-76
2023/03/08 04:17:05;;;;;;;20.52;8.85;;;;;;;4.29;100.00;96670.59;5126637;27;20019;-76
2023/03/08 04:19:30;;;;;;;20.02;9.45;;;;;;;4.26;100.00;96668.09;5115830;27;20027;-77
2023/03/08 04:21:56;;;;;;;25.83;11.32;;;;;;;4.29;100.00;96676.75;5120057;27;20130;-78
2023/03/08 04:24:22;;;;;;;23.33;11.00;;;;;;;4.37;100.00;96668.38;5107082;27;20057;-76
2023/03/08 04:26:47;;;;;;;28.42;11.60;;;;;;;4.40;100.00;96665.59;5133826;27;20057;-76
2023/03/08 04:29:13;;;;;;;31.25;14.05;;;;;;;4.32;100.00;96665.13;5115619;27;20015;-76
2023/03/08 04:31:38;;;;;;;34.55;15.48;;;;;;;4.36;100.00;96664.06;5118293;27;20402;-77
2023/03/08 04:34:04;;;;;;;37.78;14.85;;;;;;;4.32;100.00;96657.19;5112945;27;20027;-78
2023/03/08 04:36:29;;;;;;;29.65;12.45;;;;;;;4.32;100.00;96649.25;5123965;27;20059;-77
2023/03/08 04:38:55;;;;;;;29.88;13.38;;;;;;;4.41;100.00;96651.41;5125501;27;20031;-76
2023/03/08 04:41:21;;;;;;;26.75;10.10;;;;;;;4.35;100.00;96651.75;5132990;27;20114;-73
2023/03/08 04:43:54;;;;;;;25.05;9.43;;;;;;;4.38;100.00;96656.88;5133578;27;20051;-78
2023/03/08 04:46:23;;;;;;;16.83;7.93;;;;;;;4.40;100.00;96652.34;5115580;27;20019;-76
2023/03/08 04:48:51;;;;;;;16.70;7.78;;;;;;;4.26;100.00;96668.09;5114898;27;20076;-76
2023/03/08 04:51:17;;;;;;;28.30;9.77;;;;;;;4.19;100.00;96664.03;5123951;27;20080;-77
2023/03/08 04:53:44;;;;;;;19.52;10.35;;;;;;;4.18;100.00;96671.13;5133419;27;20026;-75
2023/03/08 04:56:10;;;;;;;26.45;11.38;;;;;;;4.25;100.00;96663.72;5133467;27;20113;-77
2023/03/08 04:58:36;;;;;;;30.55;9.88;;;;;;;4.44;100.00;96684.81;5115167;27;20027;-76
2023/03/08 05:01:28;;;;;;;21.67;9.05;;;;;;;4.60;100.00;96689.25;5114869;27;20027;-77
2023/03/08 05:03:54;;;;;;;29.80;10.35;;;;;;;4.69;100.00;96677.31;5093851;27;20050;-76
2023/03/08 05:06:22;;;;;;;22.73;11.10;;;;;;;4.85;100.00;96694.97;5116290;27;20115;-76
2023/03/08 05:08:47;;;;;;;56.85;23.10;;;;;;;4.95;100.00;96681.22;5123361;27;20063;-76
2023/03/08 05:11:25;;;;;;;46.70;20.05;;;;;;;5.10;100.00;96683.06;5114680;27;20070;-78
2023/03/08 05:13:53;;;;;;;51.75;22.83;;;;;;;5.18;100.00;96678.19;5128169;27;20110;-77
2023/03/08 05:16:18;;;;;;;82.15;33.58;;;;;;;5.32;100.00;96686.25;5133738;27;20482;-76
2023/03/08 05:18:44;;;;;;;39.17;17.92;;;;;;;5.50;100.00;96695.84;5120907;27;20041;-77
2023/03/08 05:21:12;;;;;;;38.60;12.75;;;;;;;5.60;100.00;96690.88;5129023;27;20415;-75
2023/03/08 05:23:37;;;;;;;32.38;13.27;;;;;;;5.90;100.00;96687.38;5076036;28;20056;-77
2023/03/08 05:26:04;;;;;;;58.22;26.35;;;;;;;6.64;100.00;96703.34;5087282;28;20389;-75
2023/03/08 05:28:32;;;;;;;46.70;23.10;;;;;;;7.40;100.00;96701.28;5073028;28;20016;-77
2023/03/08 05:31:01;;;;;;;66.50;28.77;;;;;;;7.97;100.00;96689.56;5073421;28;20031;-77
2023/03/08 05:33:27;;;;;;;59.65;21.73;;;;;;;8.37;100.00;96665.63;5090340;28;20164;-76
2023/03/08 05:35:53;;;;;;;48.63;20.70;;;;;;;8.82;98.44;96664.34;5073637;28;20059;-76
2023/03/08 05:38:19;;;;;;;81.00;23.60;;;;;;;9.38;93.13;96669.22;5073327;28;20032;-77
2023/03/08 05:40:45;;;;;;;56.30;24.60;;;;;;;9.66;90.91;96674.25;5073351;28;20027;-78
2023/03/08 05:43:10;;;;;;;73.85;26.42;;;;;;;9.89;87.81;96675.28;5090212;28;20024;-75
2023/03/08 05:45:36;;;;;;;59.83;19.30;;;;;;;9.78;86.71;96699.25;5090069;28;20023;-76
2023/03/08 05:48:01;;;;;;;47.78;18.65;;;;;;;9.46;88.18;96696.19;5090378;28;20019;-77
2023/03/08 05:50:27;;;;;;;45.35;18.00;;;;;;;9.05;91.90;96693.78;5073079;28;20027;-77
2023/03/08 05:52:52;;;;;;;32.30;15.00;;;;;;;8.90;93.35;96691.31;5073353;28;20030;-77
2023/03/08 05:55:18;;;;;;;29.55;11.50;;;;;;;8.99;93.04;96686.19;5090161;28;20024;-78
2023/03/08 05:57:43;;;;;;;34.25;14.80;;;;;;;9.31;92.16;96697.28;5072929;28;20503;-76
2023/03/08 06:00:09;;;;;;;36.03;14.65;;;;;;;9.65;89.62;96706.44;5089905;28;20068;-75
2023/03/08 06:02:35;;;;;;;35.38;16.00;;;;;;;10.03;86.84;96707.16;5072685;28;20403;-78
2023/03/08 06:05:01;;;;;;;44.95;16.20;;;;;;;10.54;82.96;96701.63;5090297;28;20027;-78
2023/03/08 06:07:26;;;;;;;43.65;19.17;;;;;;;10.75;80.94;96702.66;5073024;28;20056;-76
2023/03/08 06:09:51;;;;;;;45.63;19.05;;;;;;;11.38;76.66;96686.97;5090058;28;20020;-78
2023/03/08 06:12:17;;;;;;;41.67;16.60;;;;;;;12.31;70.12;96688.34;5072847;28;20043;-78
2023/03/08 06:14:45;;;;;;;32.20;11.82;;;;;;;12.92;65.97;96684.03;5089856;28;20469;-76
2023/03/08 06:17:11;;;;;;;37.85;15.00;;;;;;;13.36;62.99;96682.94;5089881;28;20522;-78
2023/03/08 06:19:36;;;;;;;67.32;30.70;;;;;;;14.07;60.93;96695.41;5087236;28;20055;-77
2023/03/08 06:22:02;;;;;;;47.42;20.17;;;;;;;15.29;55.92;96674.19;5094834;27;20035;-79
2023/03/08 06:24:27;;;;;;;49.65;22.67;;;;;;;16.62;51.68;96671.06;5132223;27;20410;-78
2023/03/08 06:26:54;;;;;;;66.93;32.45;;;;;;;17.59;48.41;96655.66;5113363;27;20508;-78
2023/03/08 06:29:20;;;;;;;51.03;23.38;;;;;;;18.70;45.80;96650.84;5113510;28;20027;-76
2023/03/08 06:31:45;;;;;;;48.35;20.42;;;;;;;19.73;43.18;96647.44;5103814;27;20510;-78
2023/03/08 06:34:11;;;;;;;45.72;20.23;;;;;;;20.74;41.09;96645.66;5113506;28;20031;-76
2023/03/08 06:36:37;;;;;;;55.85;26.30;;;;;;;21.42;39.43;96634.75;5101709;28;20022;-77
2023/03/08 06:39:03;;;;;;;46.97;25.58;;;;;;;22.81;37.30;96634.84;5096454;28;20071;-77
2023/03/08 06:41:29;;;;;;;33.17;16.52;;;;;;;23.60;35.40;96625.53;5113228;28;20398;-77
2023/03/08 06:43:55;;;;;;;34.47;17.15;;;;;;;24.32;34.23;96609.59;5113495;28;20027;-77
2023/03/08 06:46:21;;;;;;;33.15;15.32;;;;;;;24.93;32.74;96602.25;5096225;28;20027;-77
2023/03/08 06:48:47;;;;;;;34.75;16.45;;;;;;;25.60;32.22;96604.00;5096227;28;20034;-78
2023/03/08 06:51:12;;;;;;;31.65;16.92;;;;;;;25.45;31.78;96604.19;5113559;28;20034;-77
2023/03/08 06:53:38;;;;;;;27.70;11.75;;;;;;;25.63;32.13;96603.59;5096155;28;20031;-78
2023/03/08 06:56:06;;;;;;;22.77;11.35;;;;;;;25.75;32.23;96599.16;5113173;28;20053;-78
2023/03/08 06:58:32;;;;;;;33.60;13.38;;;;;;;24.79;33.07;96589.59;5125429;28;20099;-77
2023/03/08 07:00:58;;;;;;;29.92;13.15;;;;;;;24.97;32.69;96594.47;5097116;28;20440;-76
2023/03/08 07:03:25;;;;;;;21.45;11.05;;;;;;;25.81;32.16;96610.09;5095950;28;20414;-77
2023/03/08 07:05:51;;;;;;;36.85;11.45;;;;;;;26.66;30.98;96608.19;5123852;28;20027;-77
2023/03/08 07:08:16;;;;;;;18.05;9.85;;;;;;;26.81;29.50;96586.81;5114575;28;20026;-77
2023/03/08 07:10:42;;;;;;;15.02;7.22;;;;;;;25.66;30.43;96573.03;5130403;27;20054;-76
2023/03/08 07:13:07;;;;;;;20.98;10.70;;;;;;;24.89;32.02;96570.06;5130845;27;20083;-77
2023/03/08 07:15:33;;;;;;;12.98;6.30;;;;;;;24.02;33.00;96565.28;5133916;27;20084;-77
2023/03/08 07:17:59;;;;;;;11.10;5.45;;;;;;;23.79;32.98;96562.00;5116596;27;20023;-77
2023/03/08 07:20:26;;;;;;;8.98;3.50;;;;;;;23.52;33.45;96568.34;5135439;27;20030;-78
2023/03/08 07:22:52;;;;;;;11.75;4.18;;;;;;;23.23;34.00;96569.34;5125077;27;20107;-76
2023/03/08 07:25:19;;;;;;;6.38;3.42;;;;;;;23.92;32.34;96567.53;5099434;27;20411;-76
2023/03/08 07:27:44;;;;;;;9.77;4.57;;;;;;;24.14;32.23;96562.84;5099484;27;20058;-77
2023/03/08 07:30:12;;;;;;;4.68;2.70;;;;;;;24.10;32.31;96561.53;5135161;27;20457;-77
2023/03/08 07:32:41;;;;;;;6.20;2.65;;;;;;;24.23;31.73;96558.91;5116710;27;20031;-76
2023/03/08 07:35:08;;;;;;;7.68;3.95;;;;;;;23.91;31.87;96556.81;5127409;27;20030;-76
2023/03/08 07:37:34;;;;;;;6.88;3.58;;;;;;;23.08;32.68;96555.78;5133345;27;20023;-78
2023/03/08 07:40:00;;;;;;;6.53;2.40;;;;;;;23.54;32.52;96550.72;5133492;27;20029;-78
2023/03/08 07:42:28;;;;;;;11.82;2.10;;;;;;;23.39;31.82;96541.78;5134820;27;20120;-77
2023/03/08 07:44:54;;;;;;;3.55;2.03;;;;;;;24.09;30.98;96547.03;5116536;27;20083;-77
2023/03/08 07:47:20;;;;;;;3.35;2.30;;;;;;;23.96;31.38;96538.78;5150691;27;20057;-76
2023/03/08 07:49:46;;;;;;;10.07;6.40;;;;;;;23.73;31.51;96536.34;5150758;27;20490;-78
2023/03/08 07:52:11;;;;;;;5.45;2.50;;;;;;;23.95;31.37;96548.00;5133533;27;20019;-78
2023/03/08 07:54:37;;;;;;;10.77;5.95;;;;;;;24.12;31.13;96543.91;5133122;27;20027;-77
2023/03/08 07:57:03;;;;;;;6.53;3.30;;;;;;;25.19;29.82;96555.78;5167922;27;20111;-78
2023/03/08 07:59:29;;;;;;;3.50;2.30;;;;;;;25.12;29.13;96526.69;5134723;27;20582;-77
2023/03/08 08:01:54;;;;;;;4.93;2.03;;;;;;;24.19;30.14;96522.91;5115774;27;20496;-78
2023/03/08 08:04:21;;;;;;;3.17;1.33;;;;;;;24.07;29.75;96507.28;5099190;27;20027;-76
2023/03/08 08:06:47;;;;;;;7.22;2.35;;;;;;;24.06;30.16;96503.69;5134209;27;20360;-76
2023/03/08 08:09:13;;;;;;;15.88;8.70;;;;;;;24.60;30.00;96524.72;5150315;27;20056;-77
2023/03/08 08:11:39;;;;;;;3.95;2.45;;;;;;;24.74;28.62;96520.94;5116002;27;20046;-78
2023/03/08 08:14:05;;;;;;;3.28;2.50;;;;;;;25.55;27.83;96529.84;5132283;27;20402;-77
2023/03/08 08:16:31;;;;;;;4.65;2.15;;;;;;;25.80;27.62;96525.38;5115799;27;20015;-77
2023/03/08 08:18:57;;;;;;;10.77;1.98;;;;;;;26.42;27.61;96554.94;5098618;27;20016;-78
2023/03/08 08:21:24;;;;;;;5.72;1.77;;;;;;;26.03;27.21;96522.13;5098670;27;20446;-76
2023/03/08 08:23:49;;;;;;;6.93;2.38;;;;;;;25.92;27.73;96514.59;5115360;27;20046;-76
2023/03/08 08:26:20;;;;;;;24.75;11.95;;;;;;;25.48;27.56;96507.06;5132465;27;20019;-78
2023/03/08 08:28:48;;;;;;;6.85;2.28;;;;;;;25.23;28.02;96509.63;5115612;27;20023;-77
2023/03/08 08:31:16;;;;;;;6.18;2.33;;;;;;;25.97;26.52;96518.34;5105966;27;20111;-78
2023/03/08 08:33:41;;;;;;;6.28;1.90;;;;;;;26.00;26.65;96515.19;5098484;27;20031;-76
2023/03/08 08:36:09;;;;;;;4.47;2.15;;;;;;;25.85;26.61;96503.66;5098333;27;20031;-78
2023/03/08 08:38:34;;;;;;;2.50;1.67;;;;;;;25.38;26.14;96477.38;5132902;27;20478;-78
2023/03/08 08:41:04;;;;;;;2.67;1.42;;;;;;;24.03;27.68;96454.94;5167006;27;20031;-76
2023/03/08 08:43:30;;;;;;;3.45;1.38;;;;;;;24.18;27.70;96472.03;5115574;27;20091;-77
2023/03/08 08:45:57;;;;;;;2.65;1.65;;;;;;;23.26;28.73;96453.50;5149715;27;20399;-76
2023/03/08 08:48:24;;;;;;;5.88;2.55;;;;;;;24.25;27.92;96486.56;5115044;27;20030;-76
2023/03/08 08:50:50;;;;;;;3.35;1.60;;;;;;;25.43;25.81;96490.44;5131988;27;20470;-76
2023/03/08 08:53:16;;;;;;;10.15;1.67;;;;;;;25.35;26.38;96486.03;5124611;27;20096;-76
2023/03/08 08:55:42;;;;;;;2.95;1.30;;;;;;;25.77;25.57;96492.94;5101930;27;20084;-77
2023/03/08 08:58:08;;;;;;;11.02;6.85;;;;;;;25.81;25.81;96480.47;5133079;27;20031;-76
2023/03/08 09:00:34;;;;;;;1.42;1.00;;;;;;;26.01;25.03;96478.50;5133515;27;20042;-75
2023/03/08 09:03:00;;;;;;;3.53;1.80;;;;;;;25.05;26.38;96457.44;5114860;27;20452;-76
2023/03/08 09:05:26;;;;;;;15.20;2.63;;;;;;;24.09;27.37;96436.84;5114803;27;20023;-77
2023/03/08 09:07:58;;;;;;;1.58;1.13;;;;;;;23.28;27.69;96413.19;5114755;27;20498;-76
2023/03/08 09:10:25;;;;;;;2.72;1.40;;;;;;;22.02;29.02;96396.88;5108195;27;20027;-76
2023/03/08 09:12:51;;;;;;;5.38;1.55;;;;;;;21.54;29.81;96406.53;5132978;27;20027;-76
2023/03/08 09:15:16;;;;;;;9.93;2.28;;;;;;;20.88;31.45;96405.66;5133053;27;20580;-75
2023/03/08 09:17:42;;;;;;;5.78;2.20;;;;;;;20.76;32.26;96420.72;5106047;27;20118;-76
2023/03/08 09:20:08;;;;;;;2.72;1.67;;;;;;;20.13;32.40;96398.50;5119055;27;20023;-75
2023/03/08 09:22:35;;;;;;;5.93;1.90;;;;;;;19.54;32.94;96390.09;5117164;27;20053;-76
2023/03/08 09:25:00;;;;;;;4.90;2.20;;;;;;;19.15;33.15;96381.97;5117417;27;20113;-75
2023/03/08 09:27:26;;;;;;;8.52;3.25;;;;;;;18.72;34.08;96385.19;5124595;27;20116;-74
2023/03/08 09:29:54;;;;;;;4.97;1.50;;;;;;;18.43;33.63;96369.47;5123059;27;20033;-75
2023/03/08 09:32:20;;;;;;;4.55;1.98;;;;;;;18.30;34.30;96382.72;5143500;27;20119;-76
2023/03/08 09:34:46;;;;;;;5.55;1.98;;;;;;;18.63;34.46;96392.50;5114424;27;20034;-75
2023/03/08 09:37:11;;;;;;;8.68;3.05;;;;;;;18.86;34.41;96408.84;5129284;27;20026;-75
2023/03/08 09:39:39;;;;;;;5.13;1.90;;;;;;;18.74;34.97;96421.06;5119961;27;20519;-76
2023/03/08 09:42:13;;;;;;;4.60;2.00;;;;;;;19.11;34.66;96428.59;5114057;27;20478;-76
2023/03/08 09:45:05;;;;;;;2.15;1.60;;;;;;;19.85;34.43;96461.47;5108467;27;20019;-75
2023/03/08 09:47:34;;;;;;;5.05;2.38;;;;;;;21.07;32.50;96475.75;5086194;27;20486;-76
2023/03/08 09:50:14;;;;;;;2.05;1.50;;;;;;;21.74;31.85;96469.41;5127971;27;20110;-77
2023/03/08 09:52:55;;;;;;;4.25;2.67;;;;;;;21.84;31.51;96472.69;5120122;27;20027;-75
2023/03/08 09:55:31;;;;;;;5.45;3.00;;;;;;;21.91;31.11;96463.56;5114429;27;20022;-78
2023/03/08 09:57:59;;;;;;;6.28;3.10;;;;;;;21.79;31.38;96450.59;5097589;27;20054;-75
2023/03/08 10:00:35;;;;;;;10.85;4.35;;;;;;;21.58;31.90;96451.41;5127956;27;20030;-76
2023/03/08 10:03:19;;;;;;;5.53;3.05;;;;;;;22.01;31.76;96464.13;5122396;27;20019;-78
2023/03/08 10:06:37;;;;;;;3.38;2.25;;;;;;;21.71;32.06;96453.44;5113521;27;20034;-77
2023/03/08 10:09:15;;;;;;;3.50;2.13;;;;;;;21.50;32.18;96457.78;5086358;27;20039;-77
2023/03/08 10:12:09;;;;;;;3.65;1.38;;;;;;;20.99;32.40;96428.78;5131994;27;20023;-77
2023/03/08 10:14:37;;;;;;;6.43;2.55;;;;;;;20.94;32.58;96442.09;5114756;27;20030;-75
2023/03/08 10:17:10;;;;;;;7.18;3.67;;;;;;;20.80;33.70;96440.19;5134517;27;20027;-77
2023/03/08 10:19:40;;;;;;;4.25;1.95;;;;;;;20.71;33.26;96442.16;5129041;27;20019;-78
2023/03/08 10:22:30;;;;;;;4.05;3.05;;;;;;;21.73;32.34;96479.44;5106954;28;20134;-78
2023/03/08 10:25:04;;;;;;;2.92;1.70;;;;;;;22.14;31.78;96480.63;5120536;27;20118;-76
2023/03/08 10:27:34;;;;;;;2.35;1.70;;;;;;;22.25;31.90;96481.13;5144888;27;20019;-76
2023/03/08 10:30:01;;;;;;;3.35;1.85;;;;;;;22.41;31.79;96483.59;5125156;27;20046;-78
2023/03/08 10:32:28;;;;;;;6.28;3.60;;;;;;;23.72;30.56;96498.28;5109717;28;20027;-77
2023/03/08 10:35:03;;;;;;;5.88;2.03;;;;;;;25.13;28.64;96520.19;5111042;28;20115;-77
2023/03/08 10:37:31;;;;;;;3.50;2.17;;;;;;;25.25;29.26;96519.34;5130276;28;20045;-77
2023/03/08 10:39:58;;;;;;;5.90;2.03;;;;;;;25.10;28.91;96494.06;5131958;27;20092;-77
2023/03/08 10:42:26;;;;;;;2.83;1.33;;;;;;;24.48;29.61;96482.63;5096574;28;20054;-78
2023/03/08 10:44:56;;;;;;;2.80;1.48;;;;;;;25.25;29.25;96508.41;5099589;28;20041;-78
2023/03/08 10:47:24;;;;;;;6.90;1.30;;;;;;;24.58;29.44;96472.13;5125010;27;20076;-78
2023/03/08 10:50:29;;;;;;;9.07;4.05;;;;;;;24.74;29.76;96483.50;5122738;27;20145;-77
2023/03/08 10:53:06;;;;;;;1.42;1.33;;;;;;;24.62;29.53;96465.19;5075962;27;20038;-78
2023/03/08 10:55:43;;;;;;;3.38;1.42;;;;;;;25.47;29.26;96488.97;5121630;27;20023;-76
2023/03/08 10:58:30;;;;;;;5.63;1.30;;;;;;;24.95;29.17;96462.50;5136150;27;20027;-78
2023/03/08 11:00:58;;;;;;;3.55;1.70;;;;;;;24.83;29.50;96454.06;5100434;27;20026;-78
2023/03/08 11:03:24;;;;;;;2.90;1.77;;;;;;;25.19;29.93;96470.91;5104375;27;20519;-77
2023/03/08 11:06:13;;;;;;;4.20;1.42;;;;;;;26.20;28.24;96479.50;5144047;27;20023;-77
2023/03/08 11:08:50;;;;;;;7.15;1.48;;;;;;;27.19;27.56;96502.50;5102718;27;20046;-78
2023/03/08 11:11:15;;;;;;;11.85;3.95;;;;;;;26.65;27.54;96461.06;5136029;27;20508;-79
2023/03/08 11:13:45;;;;;;;2.85;1.77;;;;;;;24.67;29.00;96402.50;5114701;27;20027;-78
2023/03/08 11:16:38;;;;;;;3.92;1.95;;;;;;;24.25;30.01;96401.00;5152057;27;20920;-77
2023/03/08 11:19:08;;;;;;;4.88;1.92;;;;;;;22.94;31.22;96364.94;5158902;27;20031;-79
2023/03/08 11:22:06;;;;;;;2.38;1.45;;;;;;;22.48;32.41;96361.88;5135541;27;20406;-78
2023/03/08 11:24:56;;;;;;;9.73;1.50;;;;;;;23.48;31.09;96400.50;5089857;27;20571;-77
2023/03/08 11:27:40;;;;;;;7.45;3.63;;;;;;;25.13;30.33;96438.88;5129680;27;20023;-78
2023/03/08 11:30:14;;;;;;;3.13;1.50;;;;;;;26.08;28.12;96427.25;5159184;27;20139;-79